Terminal Aerodrome Forecast
Issued by NWS

Home | Current Version | Previous Version | Text Only | Print | Product List | Glossary On
Versions: 1 2 3 4 5 6 7 8 9 10 11 12 13 14 15
000
FTUS41 KBTV 271736 CCA
TAFPBG
TAF COR
KPBG 271736Z 2718/2818 15007KT 2SM TSRA BR FEW040 OVC070CB
     FM271830 07006KT P6SM SHRA BKN060
      TEMPO 2719/2722 VRB20G30KT 4SM -SHRA BR BKN050
     FM272300 13004KT P6SM VCSH BKN070
     FM280500 21006KT P6SM SCT080=

USA.gov is the U.S. government's official web portal to all federal, state and local government web resources and services.